createdAt,value
2023-03-10T00:01:33.649Z,96980.00
2023-03-10T00:04:02.261Z,96987.53
2023-03-10T00:06:33.417Z,96992.00
2023-03-10T00:09:00.715Z,96990.81
2023-03-10T00:11:28.114Z,97000.44
2023-03-10T00:13:55.479Z,97003.00
2023-03-10T00:16:30.079Z,97005.38
2023-03-10T00:18:57.785Z,97003.22
2023-03-10T00:21:27.706Z,97009.00
2023-03-10T00:23:55.121Z,96999.50
2023-03-10T00:26:23.289Z,97004.09
2023-03-10T00:28:51.043Z,97006.16
2023-03-10T00:31:21.501Z,97006.59
2023-03-10T00:33:49.279Z,97003.91
2023-03-10T00:36:22.303Z,96999.59
2023-03-10T00:38:51.061Z,96987.28
2023-03-10T00:41:21.152Z,96978.03
2023-03-10T00:43:49.017Z,96978.41
2023-03-10T00:46:16.529Z,96974.50
2023-03-10T00:48:44.516Z,96974.84
2023-03-10T00:51:11.731Z,96984.13
2023-03-10T00:53:40.765Z,96988.88
2023-03-10T00:56:13.509Z,96980.25
2023-03-10T00:58:40.973Z,96981.91
2023-03-10T01:01:17.682Z,96986.53
2023-03-10T01:03:45.093Z,96990.97
2023-03-10T01:06:13.121Z,96995.19
2023-03-10T01:08:40.270Z,97001.09
2023-03-10T01:11:07.661Z,97001.75
2023-03-10T01:13:35.973Z,97006.50
2023-03-10T01:16:04.148Z,97004.69
2023-03-10T01:18:32.372Z,97007.09
2023-03-10T01:20:59.537Z,97003.22
2023-03-10T01:23:27.400Z,96997.97
2023-03-10T01:25:55.063Z,96992.25
2023-03-10T01:28:22.439Z,96976.63
2023-03-10T01:30:50.084Z,96981.06
2023-03-10T01:33:18.380Z,96975.78
2023-03-10T01:35:45.854Z,96982.41
2023-03-10T01:38:13.138Z,96990.28
2023-03-10T01:40:41.042Z,96998.84
2023-03-10T01:43:20.530Z,97001.47
2023-03-10T01:45:48.194Z,97015.56
2023-03-10T01:48:18.588Z,97004.28
2023-03-10T01:50:48.494Z,97016.25
2023-03-10T01:53:18.221Z,97012.47
2023-03-10T01:55:53.366Z,97012.16
2023-03-10T01:58:22.777Z,97018.88
2023-03-10T02:00:53.487Z,97027.06
2023-03-10T02:03:34.778Z,97018.84
2023-03-10T02:06:06.431Z,97020.16
2023-03-10T02:08:38.229Z,97011.78
2023-03-10T02:11:06.344Z,97017.84
2023-03-10T02:13:33.417Z,97015.56
2023-03-10T02:16:01.152Z,97018.03
2023-03-10T02:18:28.812Z,97028.69
2023-03-10T02:21:04.651Z,97028.06
2023-03-10T02:24:01.015Z,97026.56
2023-03-10T02:26:29.190Z,97039.88
2023-03-10T02:28:58.883Z,97030.34
2023-03-10T02:31:27.244Z,97029.69
2023-03-10T02:33:54.522Z,97041.47
2023-03-10T02:36:24.278Z,97035.75
2023-03-10T02:38:52.531Z,97045.25
2023-03-10T02:41:22.753Z,97048.72
2023-03-10T02:43:50.588Z,97045.09
2023-03-10T02:46:26.447Z,97043.47
2023-03-10T02:48:53.849Z,97042.16
2023-03-10T02:51:31.236Z,97046.06
2023-03-10T02:54:01.904Z,97036.72
2023-03-10T02:56:32.482Z,97042.94
2023-03-10T02:59:00.879Z,97039.34
2023-03-10T03:01:30.322Z,97042.63
2023-03-10T03:03:58.274Z,97042.44
2023-03-10T03:06:26.330Z,97048.81
2023-03-10T03:08:53.739Z,97040.44
2023-03-10T03:11:23.658Z,97047.69
2023-03-10T03:13:51.237Z,97052.59
2023-03-10T03:16:18.505Z,97050.94
2023-03-10T03:18:48.583Z,97049.13
2023-03-10T03:21:19.025Z,97047.63
2023-03-10T03:23:47.848Z,97053.91
2023-03-10T03:26:20.316Z,97060.66
2023-03-10T03:28:49.072Z,97057.84
2023-03-10T03:31:23.242Z,97058.50
2023-03-10T03:33:54.502Z,97067.31
2023-03-10T03:36:22.150Z,97063.66
2023-03-10T03:38:49.553Z,97072.22
2023-03-10T03:41:17.729Z,97070.88
2023-03-10T03:43:44.916Z,97065.16
2023-03-10T03:46:12.699Z,97068.88
2023-03-10T03:48:40.702Z,97079.97
2023-03-10T03:51:09.334Z,97077.97
2023-03-10T03:53:41.050Z,97083.72
2023-03-10T03:56:08.970Z,97076.84
2023-03-10T03:58:38.023Z,97069.78
2023-03-10T04:01:05.636Z,97071.94
2023-03-10T04:03:40.653Z,97063.47
2023-03-10T04:06:12.081Z,97070.78
2023-03-10T04:08:40.049Z,97065.22
2023-03-10T04:11:07.196Z,97068.81
2023-03-10T04:13:37.542Z,97063.03
2023-03-10T04:16:06.899Z,97063.47
2023-03-10T04:18:36.780Z,97064.84
2023-03-10T04:21:04.850Z,97059.31
2023-03-10T04:23:32.915Z,97077.53
2023-03-10T04:26:00.119Z,97074.94
2023-03-10T04:28:30.172Z,97079.63
2023-03-10T04:30:57.372Z,97080.25
2023-03-10T04:33:28.059Z,97080.56
2023-03-10T04:35:55.447Z,97093.84
2023-03-10T04:38:24.174Z,97088.16
2023-03-10T04:40:56.809Z,97080.81
2023-03-10T04:43:28.033Z,97087.84
2023-03-10T04:45:56.418Z,97082.00
2023-03-10T04:48:24.564Z,97079.19
2023-03-10T04:50:59.697Z,97070.34
2023-03-10T04:53:32.695Z,97057.25
2023-03-10T04:56:02.137Z,97050.72
2023-03-10T04:58:31.417Z,97053.16
2023-03-10T05:01:03.091Z,97044.19
2023-03-10T05:03:36.306Z,97043.03
2023-03-10T05:06:04.634Z,97042.75
2023-03-10T05:08:32.183Z,97048.84
2023-03-10T05:10:59.311Z,97049.84
2023-03-10T05:13:26.647Z,97055.59
2023-03-10T05:15:54.034Z,97054.94
2023-03-10T05:18:21.207Z,97066.59
2023-03-10T05:20:54.677Z,97077.56
2023-03-10T05:23:22.559Z,97080.06
2023-03-10T05:25:50.792Z,97087.28
2023-03-10T05:28:20.393Z,97099.06
2023-03-10T05:30:47.727Z,97098.94
2023-03-10T05:33:14.910Z,97112.03
2023-03-10T05:35:42.608Z,97115.97
2023-03-10T05:38:09.903Z,97121.88
2023-03-10T05:40:37.005Z,97123.53
2023-03-10T05:43:04.223Z,97128.75
2023-03-10T05:45:31.445Z,97130.41
2023-03-10T05:47:58.562Z,97130.56
2023-03-10T05:50:25.659Z,97128.94
2023-03-10T05:52:53.707Z,97129.75
2023-03-10T05:55:21.535Z,97118.59
2023-03-10T05:57:48.744Z,97126.63
2023-03-10T06:00:17.060Z,97134.34
2023-03-10T06:02:55.275Z,97142.38
2023-03-10T06:05:22.358Z,97152.56
2023-03-10T06:07:51.595Z,97155.66
2023-03-10T06:10:18.850Z,97143.66
2023-03-10T06:12:45.907Z,97139.69
2023-03-10T06:15:13.020Z,97135.56
2023-03-10T06:17:40.235Z,97137.84
2023-03-10T06:20:07.654Z,97140.53
2023-03-10T06:22:34.715Z,97142.00
2023-03-10T06:25:02.034Z,97157.91
2023-03-10T06:27:30.880Z,97170.16
2023-03-10T06:29:58.062Z,97165.81
2023-03-10T06:32:26.145Z,97169.19
2023-03-10T06:34:53.225Z,97175.72
2023-03-10T06:37:20.541Z,97168.22
2023-03-10T06:39:47.581Z,97161.09
2023-03-10T06:42:14.625Z,97152.09
2023-03-10T06:44:42.051Z,97155.56
2023-03-10T06:47:09.226Z,97160.31
2023-03-10T06:49:36.864Z,97163.69
2023-03-10T06:52:04.148Z,97161.75
2023-03-10T06:54:31.261Z,97160.47
2023-03-10T06:56:58.326Z,97161.47
2023-03-10T06:59:25.417Z,97163.41
2023-03-10T07:01:52.505Z,97165.72
2023-03-10T07:04:19.640Z,97165.09
2023-03-10T07:06:46.820Z,97172.28
2023-03-10T07:09:13.923Z,97174.91
2023-03-10T07:11:41.090Z,97178.97
2023-03-10T07:14:08.182Z,97170.22
2023-03-10T07:16:35.367Z,97167.16
2023-03-10T07:19:02.467Z,97162.94
2023-03-10T07:21:29.727Z,97164.22
2023-03-10T07:23:56.809Z,97162.78
2023-03-10T07:26:24.033Z,97169.22
2023-03-10T07:28:51.218Z,97166.56
2023-03-10T07:31:18.546Z,97167.22
2023-03-10T07:33:46.270Z,97169.19
2023-03-10T07:36:16.818Z,97175.63
2023-03-10T07:38:43.947Z,97164.69
2023-03-10T07:41:17.629Z,97172.03
2023-03-10T07:43:45.274Z,97176.97
2023-03-10T07:46:14.651Z,97183.97
2023-03-10T07:48:42.230Z,97184.16
2023-03-10T07:51:09.344Z,97184.78
2023-03-10T07:53:36.591Z,97187.13
2023-03-10T07:56:08.449Z,97188.47
2023-03-10T07:58:36.036Z,97180.53
2023-03-10T08:01:04.496Z,97184.25
2023-03-10T08:03:34.284Z,97182.97
2023-03-10T08:06:02.749Z,97183.50
2023-03-10T08:08:29.917Z,97180.22
2023-03-10T08:11:05.428Z,97169.78
2023-03-10T08:13:33.485Z,97171.03
2023-03-10T08:16:01.654Z,97175.41
2023-03-10T08:18:29.861Z,97194.16
2023-03-10T08:20:57.278Z,97187.50
2023-03-10T08:23:25.376Z,97193.31
2023-03-10T08:25:52.520Z,97183.97
2023-03-10T08:28:19.705Z,97183.31
2023-03-10T08:31:03.113Z,97179.22
2023-03-10T08:33:31.114Z,97176.50
2023-03-10T08:36:19.047Z,97183.78
2023-03-10T08:38:47.362Z,97184.22
2023-03-10T08:41:20.440Z,97186.53
2023-03-10T08:43:49.245Z,97192.72
2023-03-10T08:46:18.457Z,97186.19
2023-03-10T08:48:45.682Z,97193.94
2023-03-10T08:51:15.986Z,97188.69
2023-03-10T08:53:44.837Z,97182.66
2023-03-10T08:56:11.993Z,97186.13
2023-03-10T08:58:39.614Z,97177.88
2023-03-10T09:01:06.999Z,97172.00
2023-03-10T09:03:41.336Z,97180.59
2023-03-10T09:06:08.861Z,97166.38
2023-03-10T09:08:36.057Z,97167.78
2023-03-10T09:11:04.174Z,97169.41
2023-03-10T09:13:31.266Z,97161.06
2023-03-10T09:15:58.422Z,97170.00
2023-03-10T09:18:25.755Z,97163.91
2023-03-10T09:20:52.867Z,97165.94
2023-03-10T09:23:19.939Z,97165.09
2023-03-10T09:25:47.037Z,97159.84
2023-03-10T09:28:16.327Z,97149.00
2023-03-10T09:30:44.575Z,97158.25
2023-03-10T09:33:20.200Z,97155.28
2023-03-10T09:36:05.065Z,97143.19
2023-03-10T09:38:32.942Z,97140.25
2023-03-10T09:41:19.077Z,97145.09
2023-03-10T10:18:18.041Z,97098.44
2023-03-10T10:20:50.202Z,97094.19
2023-03-10T10:23:35.461Z,97095.03
2023-03-10T10:26:13.002Z,97082.13
2023-03-10T10:28:45.104Z,97081.97
2023-03-10T10:31:17.476Z,97081.66
2023-03-10T10:34:04.022Z,97075.78
2023-03-10T10:36:35.317Z,97079.31
2023-03-10T10:39:04.338Z,97078.13
2023-03-10T10:41:33.877Z,97065.72
2023-03-10T10:44:16.039Z,97061.88
2023-03-10T10:46:56.932Z,97063.72
2023-03-10T10:49:26.537Z,97058.25
2023-03-10T10:52:03.268Z,97051.88
2023-03-10T10:54:38.053Z,97053.19
2023-03-10T10:57:21.073Z,97038.22
2023-03-10T10:59:48.609Z,97022.09
2023-03-10T11:02:45.923Z,97025.81
2023-03-10T11:05:17.827Z,97026.94
2023-03-10T11:07:46.107Z,97021.97
2023-03-10T11:10:15.521Z,97010.63
2023-03-10T11:13:00.519Z,97003.28
2023-03-10T11:15:38.155Z,97002.22
2023-03-10T11:18:14.638Z,97000.38
2023-03-10T11:20:55.983Z,96992.94
2023-03-10T11:23:25.783Z,96977.75
2023-03-10T11:26:10.647Z,96985.16
2023-03-10T11:28:46.733Z,96985.06
2023-03-10T11:31:16.822Z,96992.22
2023-03-10T11:34:02.098Z,96991.34
2023-03-10T11:36:49.606Z,96992.88
2023-03-10T11:39:49.524Z,96993.28
2023-03-10T11:42:19.597Z,96999.03
2023-03-10T11:45:16.240Z,96995.19
2023-03-10T11:48:09.598Z,96992.38
2023-03-10T11:50:52.964Z,96987.94
2023-03-10T11:54:01.793Z,96981.81
2023-03-10T11:56:30.941Z,96969.50
2023-03-10T11:59:10.155Z,96962.63
2023-03-10T12:01:38.429Z,96970.09
2023-03-10T12:04:26.534Z,96952.88
2023-03-10T12:07:06.102Z,96946.22
2023-03-10T12:09:39.232Z,96953.97
2023-03-10T12:12:07.702Z,96948.44
2023-03-10T12:14:35.887Z,96945.09
2023-03-10T12:17:04.958Z,96941.34
2023-03-10T12:19:32.070Z,96936.97
2023-03-10T12:22:21.024Z,96929.00
2023-03-10T12:24:48.295Z,96930.44
2023-03-10T12:27:15.339Z,96926.72
2023-03-10T12:29:44.375Z,96923.28
2023-03-10T12:32:44.029Z,96921.63
2023-03-10T12:35:46.295Z,96919.44
2023-03-10T12:38:31.704Z,96918.38
2023-03-10T12:41:01.338Z,96913.41
2023-03-10T12:43:44.462Z,96916.94
2023-03-10T12:46:25.270Z,96905.88
2023-03-10T12:49:42.895Z,96896.56
2023-03-10T12:52:21.643Z,96892.53
2023-03-10T12:55:12.980Z,96880.69
2023-03-10T12:57:58.097Z,96876.44
2023-03-10T13:00:28.017Z,96870.88
2023-03-10T13:03:21.450Z,96871.72
2023-03-10T13:06:02.301Z,96867.47
2023-03-10T13:08:35.192Z,96852.09
2023-03-10T13:11:03.173Z,96852.72
2023-03-10T13:13:37.997Z,96849.34
2023-03-10T13:16:07.501Z,96851.28
2023-03-10T13:18:35.939Z,96841.63
2023-03-10T13:21:03.013Z,96840.56
2023-03-10T13:23:35.298Z,96835.59
2023-03-10T13:26:13.117Z,96836.19
2023-03-10T13:28:40.675Z,96841.63
2023-03-10T13:31:16.620Z,96845.31
2023-03-10T13:33:52.751Z,96841.03
2023-03-10T13:36:35.433Z,96845.41
2023-03-10T13:39:10.654Z,96847.25
2023-03-10T13:41:41.232Z,96834.69
2023-03-10T13:44:17.885Z,96837.66
2023-03-10T13:46:53.783Z,96834.81
2023-03-10T13:49:25.636Z,96832.41
2023-03-10T13:51:57.688Z,96833.72
2023-03-10T13:54:30.230Z,96833.09
2023-03-10T13:57:31.923Z,96820.06
2023-03-10T14:00:00.548Z,96827.31
2023-03-10T14:02:33.896Z,96824.94
2023-03-10T14:05:01.164Z,96830.59
2023-03-10T14:07:31.027Z,96827.47
2023-03-10T14:10:03.930Z,96823.66
2023-03-10T14:12:47.427Z,96834.03
2023-03-10T14:15:17.523Z,96828.31
2023-03-10T14:18:03.773Z,96834.34
2023-03-10T14:20:33.999Z,96831.59
2023-03-10T14:23:25.897Z,96833.16
2023-03-10T14:25:55.441Z,96826.19
2023-03-10T14:28:27.040Z,96821.78
2023-03-10T14:30:54.522Z,96826.59
2023-03-10T14:33:22.792Z,96824.38
2023-03-10T14:35:52.720Z,96821.72
2023-03-10T14:38:19.878Z,96821.97
2023-03-10T14:40:52.365Z,96814.63
2023-03-10T14:43:22.546Z,96799.78
2023-03-10T14:45:52.687Z,96805.88
2023-03-10T14:48:25.940Z,96804.50
2023-03-10T14:50:56.613Z,96802.69
2023-03-10T14:53:26.010Z,96793.91
2023-03-10T14:56:00.466Z,96790.28
2023-03-10T14:58:35.034Z,96802.72
2023-03-10T15:01:02.250Z,96793.34
2023-03-10T15:03:29.356Z,96798.84
2023-03-10T15:05:56.421Z,96798.28
2023-03-10T15:08:23.690Z,96799.91
2023-03-10T15:10:52.147Z,96804.56
2023-03-10T15:13:22.835Z,96798.06
2023-03-10T15:15:50.584Z,96797.88
2023-03-10T15:18:22.477Z,96797.06
2023-03-10T15:20:50.340Z,96798.44
2023-03-10T15:23:22.512Z,96794.31
2023-03-10T15:25:49.725Z,96793.28
2023-03-10T15:28:17.107Z,96779.28
2023-03-10T15:30:44.572Z,96783.13
2023-03-10T15:33:11.841Z,96788.78
2023-03-10T15:35:39.821Z,96781.22
2023-03-10T15:38:07.281Z,96777.41
2023-03-10T15:40:35.507Z,96776.00
2023-03-10T15:43:02.906Z,96778.00
2023-03-10T15:45:31.563Z,96779.22
2023-03-10T15:47:58.856Z,96776.28
2023-03-10T15:50:26.051Z,96775.66
2023-03-10T15:52:56.128Z,96779.28
2023-03-10T15:55:24.188Z,96779.69
2023-03-10T15:57:51.863Z,96780.94
2023-03-10T16:00:20.457Z,96785.19
2023-03-10T16:02:48.641Z,96791.00
2023-03-10T16:05:16.725Z,96776.16
2023-03-10T16:07:43.954Z,96774.53
2023-03-10T16:10:14.092Z,96773.09
2023-03-10T16:12:41.298Z,96775.53
2023-03-10T16:15:09.329Z,96763.47
2023-03-10T16:17:36.599Z,96757.88
2023-03-10T16:20:10.420Z,96756.69
2023-03-10T16:22:40.742Z,96754.63
2023-03-10T16:25:16.689Z,96753.84
2023-03-10T16:27:45.357Z,96758.56
2023-03-10T16:30:16.923Z,96756.09
2023-03-10T16:32:46.360Z,96746.06
2023-03-10T16:35:14.092Z,96743.09
2023-03-10T16:37:41.180Z,96750.19
2023-03-10T16:40:09.292Z,96746.25
2023-03-10T16:42:36.900Z,96739.13
2023-03-10T16:45:06.228Z,96743.91
2023-03-10T16:47:33.883Z,96732.94
2023-03-10T16:50:00.994Z,96735.63
2023-03-10T16:52:28.129Z,96742.78
2023-03-10T16:55:00.850Z,96745.16
2023-03-10T16:57:27.896Z,96747.97
2023-03-10T16:59:55.029Z,96743.84
2023-03-10T17:02:22.198Z,96742.00
2023-03-10T17:04:49.396Z,96733.88
2023-03-10T17:07:16.490Z,96736.97
2023-03-10T17:09:43.689Z,96726.66
2023-03-10T17:12:10.845Z,96721.75
2023-03-10T17:14:38.187Z,96720.09
2023-03-10T17:17:07.756Z,96710.75
2023-03-10T17:19:35.103Z,96705.28
2023-03-10T17:22:02.218Z,96707.31
2023-03-10T17:24:29.835Z,96698.03
2023-03-10T17:26:56.992Z,96695.19
2023-03-10T17:29:24.079Z,96694.69
2023-03-10T17:31:51.971Z,96698.34
2023-03-10T17:34:20.174Z,96699.34
2023-03-10T17:36:50.518Z,96698.72
2023-03-10T17:39:19.968Z,96707.91
2023-03-10T17:41:48.112Z,96698.16
2023-03-10T17:44:16.542Z,96699.69
2023-03-10T17:46:43.661Z,96701.38
2023-03-10T17:49:15.579Z,96706.41
2023-03-10T17:51:44.538Z,96695.47
2023-03-10T17:54:14.632Z,96682.78
2023-03-10T17:56:42.321Z,96683.13
2023-03-10T17:59:12.784Z,96686.53
2023-03-10T18:01:41.177Z,96691.22
2023-03-10T18:04:08.375Z,96693.22
2023-03-10T18:06:37.146Z,96688.19
2023-03-10T18:09:07.449Z,96667.31
2023-03-10T18:11:35.291Z,96671.91
2023-03-10T18:14:03.917Z,96666.22
2023-03-10T18:16:34.936Z,96670.28
2023-03-10T18:19:02.690Z,96672.31
2023-03-10T18:21:30.663Z,96681.88
2023-03-10T18:23:57.831Z,96670.94
2023-03-10T18:26:27.973Z,96676.75
2023-03-10T18:28:55.157Z,96665.13
2023-03-10T18:31:25.250Z,96667.63
2023-03-10T18:33:52.823Z,96667.41
2023-03-10T18:36:21.207Z,96664.66
2023-03-10T18:38:49.278Z,96657.06
2023-03-10T18:41:19.513Z,96653.19
2023-03-10T18:43:46.795Z,96643.78
2023-03-10T18:46:14.008Z,96643.19
2023-03-10T18:48:41.453Z,96642.25
2023-03-10T18:51:08.878Z,96633.22
2023-03-10T18:53:37.983Z,96639.06
2023-03-10T18:56:05.644Z,96624.84
2023-03-10T18:58:33.358Z,96623.22
2023-03-10T19:01:00.630Z,96628.50
2023-03-10T19:03:31.559Z,96626.72
2023-03-10T19:05:58.747Z,96629.56
2023-03-10T19:08:27.397Z,96622.69
2023-03-10T19:11:00.291Z,96625.44
2023-03-10T19:13:28.954Z,96629.13
2023-03-10T19:15:57.160Z,96618.19
2023-03-10T19:18:24.484Z,96609.28
2023-03-10T19:20:58.388Z,96612.84
2023-03-10T19:23:25.774Z,96607.25
2023-03-10T19:25:52.993Z,96608.13
2023-03-10T19:28:20.231Z,96609.78
2023-03-10T19:30:47.663Z,96609.41
2023-03-10T19:33:14.803Z,96599.28
2023-03-10T19:35:41.847Z,96602.94
2023-03-10T19:38:09.132Z,96607.38
2023-03-10T19:40:36.634Z,96600.25
2023-03-10T19:43:03.759Z,96594.19
2023-03-10T19:45:30.914Z,96591.16
2023-03-10T19:47:58.137Z,96585.50
2023-03-10T19:50:26.043Z,96570.25
2023-03-10T19:52:53.397Z,96574.88
2023-03-10T19:55:23.579Z,96575.31
2023-03-10T19:57:52.612Z,96582.00
2023-03-10T20:00:25.732Z,96569.84
2023-03-10T20:02:56.143Z,96563.56
2023-03-10T20:05:25.583Z,96560.28
2023-03-10T20:07:53.444Z,96542.19
2023-03-10T20:10:20.970Z,96557.41
2023-03-10T20:12:48.201Z,96547.47
2023-03-10T20:15:15.694Z,96550.53
2023-03-10T20:17:43.106Z,96543.44
2023-03-10T20:20:11.279Z,96537.75
2023-03-10T20:22:41.230Z,96531.63
2023-03-10T20:25:10.217Z,96537.09
2023-03-10T20:27:38.130Z,96542.81
2023-03-10T20:30:08.145Z,96536.72
2023-03-10T20:32:35.762Z,96524.75
2023-03-10T20:35:04.513Z,96519.44
2023-03-10T20:37:33.862Z,96520.03
2023-03-10T20:40:00.983Z,96514.75
2023-03-10T20:42:28.398Z,96512.09
2023-03-10T20:44:55.494Z,96512.75
2023-03-10T20:47:22.601Z,96509.09
2023-03-10T20:49:49.617Z,96502.75
2023-03-10T20:52:16.924Z,96502.91
2023-03-10T20:54:44.081Z,96502.09
2023-03-10T20:57:11.172Z,96498.91
2023-03-10T20:59:38.395Z,96497.72
2023-03-10T21:02:06.129Z,96489.97
2023-03-10T21:04:33.326Z,96493.56
2023-03-10T21:07:00.502Z,96495.00
2023-03-10T21:09:27.769Z,96492.94
2023-03-10T21:11:54.821Z,96491.34
2023-03-10T21:14:21.997Z,96494.41
2023-03-10T21:16:49.158Z,96496.81
2023-03-10T21:19:16.762Z,96489.50
2023-03-10T21:21:43.945Z,96487.44
2023-03-10T21:24:11.051Z,96481.34
2023-03-10T21:26:38.276Z,96476.72
2023-03-10T21:29:06.229Z,96476.09
2023-03-10T21:31:33.350Z,96471.63
2023-03-10T21:34:00.622Z,96468.78
2023-03-10T21:36:28.034Z,96468.16
2023-03-10T21:38:55.162Z,96461.88
2023-03-10T21:41:27.622Z,96448.53
2023-03-10T21:43:56.832Z,96448.91
2023-03-10T21:46:25.013Z,96438.13
2023-03-10T21:48:54.989Z,96444.44
2023-03-10T21:51:24.925Z,96451.53
2023-03-10T21:53:53.968Z,96448.47
2023-03-10T21:56:22.809Z,96449.13
2023-03-10T21:58:49.948Z,96455.22
2023-03-10T22:01:18.476Z,96450.94
2023-03-10T22:03:45.839Z,96453.34
2023-03-10T22:06:13.029Z,96455.56
2023-03-10T22:08:40.358Z,96461.28
2023-03-10T22:11:09.606Z,96461.34
2023-03-10T22:13:38.058Z,96454.84
2023-03-10T22:16:07.889Z,96448.16
2023-03-10T22:18:34.961Z,96438.22
2023-03-10T22:21:02.495Z,96438.81
2023-03-10T22:23:29.637Z,96432.31
2023-03-10T22:25:56.730Z,96426.41
2023-03-10T22:28:23.848Z,96417.06
2023-03-10T22:30:50.987Z,96425.41
2023-03-10T22:33:18.237Z,96411.59
2023-03-10T22:35:51.624Z,96413.63
2023-03-10T22:38:20.521Z,96411.19
2023-03-10T22:40:48.455Z,96417.66
2023-03-10T22:43:15.741Z,96410.72
2023-03-10T22:45:43.067Z,96412.16
2023-03-10T22:48:10.385Z,96416.25
2023-03-10T22:50:40.159Z,96413.22
2023-03-10T22:53:12.568Z,96414.44
2023-03-10T22:55:42.122Z,96409.16
2023-03-10T22:58:11.218Z,96416.44
2023-03-10T23:00:39.781Z,96413.22
2023-03-10T23:03:07.646Z,96405.94
2023-03-10T23:05:34.924Z,96400.22
2023-03-10T23:08:02.287Z,96401.44
2023-03-10T23:10:32.017Z,96387.63
2023-03-10T23:13:01.135Z,96380.13
2023-03-10T23:15:32.023Z,96377.28
2023-03-10T23:17:59.344Z,96377.50
2023-03-10T23:20:30.036Z,96376.69
2023-03-10T23:22:59.442Z,96364.88
2023-03-10T23:25:35.182Z,96362.03
2023-03-10T23:28:03.158Z,96365.91
2023-03-10T23:30:30.830Z,96366.13
2023-03-10T23:32:58.545Z,96359.19
2023-03-10T23:35:31.883Z,96348.63
2023-03-10T23:38:02.901Z,96352.22
2023-03-10T23:40:31.343Z,96348.75
2023-03-10T23:43:00.661Z,96348.97
2023-03-10T23:45:29.815Z,96350.63
2023-03-10T23:47:59.669Z,96341.88
2023-03-10T23:50:30.341Z,96335.59
2023-03-10T23:52:57.680Z,96339.94
2023-03-10T23:55:34.392Z,96330.41
2023-03-10T23:58:02.351Z,96321.28
